Terminal Aerodrome Forecast
Issued by NWS

Home | Current Version | Previous Version | Text Only | Print | Product List | Glossary On
Versions: 1 2 3 4 5 6 7 8 9 10 11 12 13 14 15 16 17 18
000
FTUS41 KLWX 042320
TAFMTN
TAF
KMTN 042320Z 0500/0524 VRB03KT P6SM FEW015 BKN130
     FM050500 VRB03KT 5SM BR FEW002 SCT200
     FM051300 14003KT P6SM SCT200
     FM052100 14004KT P6SM SCT050
      AMD NOT SKED 0502/0512=

USA.gov is the U.S. government's official web portal to all federal, state and local government web resources and services.